Time;durP1;ratioP1;P1;durP2;ratioP2;P2;SDS_P1;SDS_P2;PMS_P1;PMS_P2;Temp;Humidity;BMP_temperature;BMP_pressure;BME280_temperature;BME280_humidity;BME280_pressure;Samples;Min_cycle;Max_cycle;Signal;HPM_P1;HPM_P2
2022/09/17 00:00:51;;;;;;;7.57;2.03;;;13.00;99.90;;;;;;4060466;28;20052;-66
2022/09/17 00:02:54;;;;;;;4.90;1.60;;;13.00;99.90;;;;;;4061266;29;20067;-67
2022/09/17 00:04:55;;;;;;;6.78;1.70;;;13.00;99.90;;;;;;4065322;28;20032;-67
2022/09/17 00:06:56;;;;;;;5.00;1.80;;;13.00;99.90;;;;;;4059576;28;20027;-67
2022/09/17 00:08:56;;;;;;;9.60;1.95;;;13.10;99.90;;;;;;4063372;28;20036;-67
2022/09/17 00:10:57;;;;;;;6.88;1.60;;;13.10;99.90;;;;;;4059501;28;20334;-67
2022/09/17 00:12:58;;;;;;;6.82;1.85;;;13.10;99.90;;;;;;4057374;29;20059;-65
2022/09/17 00:14:58;;;;;;;5.43;1.45;;;13.10;99.90;;;;;;4063560;29;20028;-66
2022/09/17 00:16:59;;;;;;;3.85;1.30;;;13.10;99.90;;;;;;4062443;28;20051;-66
2022/09/17 00:19:00;;;;;;;9.57;1.90;;;13.20;99.90;;;;;;4057713;28;20031;-66
2022/09/17 00:21:02;;;;;;;4.32;1.27;;;13.10;99.90;;;;;;4063559;28;20032;-66
2022/09/17 00:23:02;;;;;;;8.80;2.08;;;13.20;99.90;;;;;;4060864;29;20084;-66
2022/09/17 00:25:05;;;;;;;7.75;1.77;;;13.20;99.90;;;;;;4062818;28;20692;-68
2022/09/17 00:27:06;;;;;;;6.05;1.50;;;13.20;99.90;;;;;;4060708;28;20123;-66
2022/09/17 00:29:07;;;;;;;10.65;2.05;;;13.20;99.90;;;;;;4063092;28;20032;-67
2022/09/17 00:31:08;;;;;;;4.18;1.30;;;13.20;99.90;;;;;;4061363;28;20099;-66
2022/09/17 00:33:15;;;;;;;6.13;1.60;;;13.20;99.90;;;;;;4062240;28;20539;-66
2022/09/17 00:35:16;;;;;;;10.90;2.00;;;13.20;99.90;;;;;;4062942;28;20495;-67
2022/09/17 00:37:20;;;;;;;7.90;1.80;;;13.20;99.90;;;;;;4063070;28;20119;-66
2022/09/17 00:39:20;;;;;;;8.82;1.77;;;13.10;99.90;;;;;;4059391;28;20499;-67
2022/09/17 00:41:23;;;;;;;7.88;2.35;;;13.10;99.90;;;;;;4060355;28;20096;-67
2022/09/17 00:43:51;;;;;;;6.00;1.33;;;13.10;99.90;;;;;;4061793;28;20044;-67
2022/09/17 00:45:52;;;;;;;5.80;1.42;;;13.10;99.90;;;;;;4056881;29;20057;-66
2022/09/17 00:47:57;;;;;;;10.55;2.17;;;13.10;99.90;;;;;;4060572;28;20485;-66
2022/09/17 00:50:14;;;;;;;8.98;2.20;;;13.10;99.90;;;;;;4062108;28;20499;-68
2022/09/17 00:52:19;;;;;;;13.05;2.30;;;13.00;99.90;;;;;;4062622;28;21462;-67
2022/09/17 00:54:20;;;;;;;5.93;1.65;;;13.00;99.90;;;;;;4067104;28;20031;-67
2022/09/17 00:56:25;;;;;;;8.60;1.85;;;13.00;99.90;;;;;;4060103;28;20570;-66
2022/09/17 00:58:27;;;;;;;10.48;2.42;;;13.00;99.90;;;;;;4064562;28;20087;-66
2022/09/17 01:00:29;;;;;;;8.07;1.80;;;13.00;99.90;;;;;;4061690;28;20040;-66
2022/09/17 01:02:31;;;;;;;8.80;2.20;;;12.90;99.90;;;;;;4064752;29;20040;-66
2022/09/17 01:04:31;;;;;;;11.48;2.17;;;12.90;99.90;;;;;;4066758;29;20036;-69
2022/09/17 01:06:46;;;;;;;6.30;1.88;;;12.90;99.90;;;;;;4063393;28;20103;-66
2022/09/17 01:09:04;;;;;;;4.18;1.73;;;12.90;99.90;;;;;;4060608;28;20037;-66
2022/09/17 01:11:37;;;;;;;6.90;1.90;;;12.90;99.90;;;;;;4063097;28;20040;-66
2022/09/17 01:13:56;;;;;;;6.70;1.88;;;12.90;99.90;;;;;;4063431;28;20032;-66
2022/09/17 01:16:19;;;;;;;11.10;2.58;;;12.80;99.90;;;;;;4062618;29;20041;-67
2022/09/17 01:18:59;;;;;;;8.73;1.83;;;12.90;99.90;;;;;;4065081;29;20484;-67
2022/09/17 01:21:15;;;;;;;7.03;2.17;;;12.80;99.90;;;;;;4041802;28;20411;-66
2022/09/17 01:23:31;;;;;;;6.28;1.90;;;12.80;99.90;;;;;;4063458;29;20036;-67
2022/09/17 01:25:50;;;;;;;9.10;1.92;;;12.80;99.90;;;;;;4063482;28;20024;-66
2022/09/17 01:28:41;;;;;;;9.60;1.88;;;12.80;99.90;;;;;;4062486;28;20509;-66
2022/09/17 01:30:50;;;;;;;8.68;2.17;;;12.90;99.90;;;;;;4052646;29;20059;-66
2022/09/17 01:32:59;;;;;;;7.47;1.80;;;12.90;99.90;;;;;;4064658;28;20111;-67
2022/09/17 01:35:26;;;;;;;10.15;2.95;;;12.90;99.90;;;;;;4062958;28;20587;-66
2022/09/17 01:37:47;;;;;;;5.75;1.80;;;12.90;99.90;;;;;;4060134;28;20404;-66
2022/09/17 01:40:01;;;;;;;6.80;1.75;;;12.90;99.90;;;;;;4062416;28;20036;-66
2022/09/17 01:42:12;;;;;;;6.30;1.88;;;12.90;99.90;;;;;;4064285;28;20074;-65
2022/09/17 01:44:23;;;;;;;9.65;2.05;;;12.90;99.90;;;;;;4061436;29;20304;-67
2022/09/17 01:46:31;;;;;;;7.47;2.10;;;12.90;99.90;;;;;;4065803;28;20133;-67
2022/09/17 01:48:37;;;;;;;10.90;2.53;;;12.90;99.90;;;;;;4063829;28;20046;-66
2022/09/17 01:50:45;;;;;;;11.00;2.00;;;12.90;99.90;;;;;;4063983;28;20051;-66
2022/09/17 01:52:51;;;;;;;12.05;2.38;;;12.90;99.90;;;;;;4063826;28;20516;-67
2022/09/17 01:54:57;;;;;;;7.55;2.30;;;12.90;99.90;;;;;;4069509;28;20031;-66
2022/09/17 01:57:03;;;;;;;9.25;2.70;;;12.90;99.90;;;;;;4068421;28;20376;-67
2022/09/17 01:59:13;;;;;;;9.40;2.53;;;12.90;99.90;;;;;;4061350;28;20039;-66
2022/09/17 02:01:16;;;;;;;6.68;1.90;;;12.90;99.90;;;;;;4062064;28;20033;-66
2022/09/17 02:03:20;;;;;;;;;;;12.90;99.90;;;;;;4066170;28;20040;-67
2022/09/17 02:05:24;;;;;;;8.82;2.17;;;12.90;99.90;;;;;;4065503;28;20285;-67
2022/09/17 02:07:25;;;;;;;11.88;2.72;;;12.90;99.90;;;;;;4064663;28;20036;-66
2022/09/17 02:09:53;;;;;;;8.85;1.85;;;12.90;99.90;;;;;;4063673;28;20036;-67
2022/09/17 02:11:59;;;;;;;8.02;1.90;;;12.90;99.90;;;;;;4061282;28;20025;-67
2022/09/17 02:14:04;;;;;;;10.23;2.20;;;12.90;99.90;;;;;;4063441;28;20024;-66
2022/09/17 02:16:13;;;;;;;7.13;2.10;;;13.00;99.90;;;;;;4064716;28;20032;-66
2022/09/17 02:18:23;;;;;;;10.98;2.65;;;12.90;99.90;;;;;;4064037;29;20488;-67
2022/09/17 02:20:28;;;;;;;5.85;1.65;;;12.90;99.90;;;;;;4063509;29;20463;-66
2022/09/17 02:23:03;;;;;;;7.80;2.35;;;12.90;99.90;;;;;;4061528;28;20047;-67
2022/09/17 02:25:15;;;;;;;8.63;2.35;;;12.90;99.90;;;;;;4058907;29;20039;-66
2022/09/17 02:27:23;;;;;;;11.95;2.72;;;12.90;99.90;;;;;;4067472;28;20391;-67
2022/09/17 02:29:31;;;;;;;11.23;2.88;;;12.90;99.90;;;;;;4060827;29;20464;-66
2022/09/17 02:31:32;;;;;;;9.32;2.38;;;12.80;99.90;;;;;;4061992;29;20484;-66
2022/09/17 02:33:34;;;;;;;13.10;2.38;;;12.80;99.90;;;;;;4065970;28;20127;-66
2022/09/17 02:35:36;;;;;;;6.97;1.80;;;12.70;99.90;;;;;;4063667;28;20028;-67
2022/09/17 02:37:37;;;;;;;9.23;2.25;;;12.80;99.90;;;;;;4072718;28;20035;-67
2022/09/17 02:39:37;;;;;;;9.05;1.83;;;12.70;99.90;;;;;;4070578;28;20380;-66
2022/09/17 02:41:57;;;;;;;9.30;2.28;;;12.80;99.90;;;;;;4067375;28;20504;-67
2022/09/17 02:44:03;;;;;;;13.63;2.67;;;12.80;99.90;;;;;;4058947;28;20094;-67
2022/09/17 02:46:13;;;;;;;15.25;2.40;;;12.60;99.90;;;;;;4067566;28;20578;-67
2022/09/17 02:48:35;;;;;;;11.45;2.35;;;12.60;99.90;;;;;;4068078;28;20040;-67
2022/09/17 02:51:04;;;;;;;11.57;2.72;;;12.60;99.90;;;;;;4070559;28;20082;-67
2022/09/17 02:53:29;;;;;;;11.55;2.20;;;12.50;99.90;;;;;;4077640;28;20031;-67
2022/09/17 02:55:30;;;;;;;7.57;2.20;;;12.50;99.90;;;;;;4070071;28;20055;-68
2022/09/17 02:57:44;;;;;;;8.85;2.03;;;12.50;99.90;;;;;;4068769;28;20059;-66
2022/09/17 03:00:17;;;;;;;8.60;2.50;;;12.50;99.90;;;;;;4066918;29;20036;-67
2022/09/17 03:02:27;;;;;;;9.43;2.22;;;12.60;99.90;;;;;;4035733;29;20037;-67
2022/09/17 03:04:28;;;;;;;15.15;2.85;;;12.60;99.90;;;;;;4051651;29;20111;-67
2022/09/17 03:06:29;;;;;;;11.85;2.40;;;12.70;99.90;;;;;;4051337;29;20044;-66
2022/09/17 03:08:37;;;;;;;19.73;3.08;;;12.60;99.90;;;;;;4053055;28;20044;-66
2022/09/17 03:10:38;;;;;;;14.20;3.05;;;12.70;99.90;;;;;;4048609;29;20040;-67
2022/09/17 03:12:39;;;;;;;13.48;2.92;;;12.70;99.90;;;;;;4066376;28;20043;-66
2022/09/17 03:14:40;;;;;;;14.27;2.80;;;12.80;99.90;;;;;;4056385;29;20039;-67
2022/09/17 03:16:41;;;;;;;9.48;2.30;;;12.70;99.90;;;;;;4051094;28;20056;-67
2022/09/17 03:18:41;;;;;;;13.27;2.47;;;12.70;99.90;;;;;;4053807;28;20047;-66
2022/09/17 03:20:42;;;;;;;11.32;2.83;;;12.70;99.90;;;;;;4050609;29;20040;-67
2022/09/17 03:22:42;;;;;;;11.13;2.17;;;12.70;99.90;;;;;;4063583;28;20391;-67
2022/09/17 03:24:43;;;;;;;8.93;2.40;;;12.70;99.90;;;;;;4061662;29;20068;-67
2022/09/17 03:26:46;;;;;;;8.27;2.35;;;12.60;99.90;;;;;;4050420;29;20044;-67
2022/09/17 03:28:46;;;;;;;;;;;12.60;99.90;;;;;;4052148;29;20071;-66
2022/09/17 03:30:47;;;;;;;12.18;2.97;;;12.60;99.90;;;;;;4050909;29;19915;-66
2022/09/17 03:32:47;;;;;;;14.05;2.38;;;12.70;99.90;;;;;;4053871;29;20086;-66
2022/09/17 03:34:48;;;;;;;11.10;2.58;;;12.70;99.90;;;;;;4051769;29;20056;-66
2022/09/17 03:36:48;;;;;;;8.45;2.08;;;12.80;99.90;;;;;;4051481;28;20043;-66
2022/09/17 03:38:54;;;;;;;7.32;2.00;;;12.70;99.90;;;;;;4052232;28;20167;-66
2022/09/17 03:41:02;;;;;;;9.68;2.38;;;12.80;99.90;;;;;;4050819;28;20044;-67
2022/09/17 03:43:03;;;;;;;7.10;1.95;;;12.70;99.90;;;;;;4065723;28;20034;-67
2022/09/17 03:45:04;;;;;;;9.52;1.88;;;12.70;99.90;;;;;;4064647;29;20111;-68
2022/09/17 03:47:05;;;;;;;11.07;2.15;;;12.80;99.90;;;;;;4061602;28;20035;-67
2022/09/17 03:49:05;;;;;;;6.97;2.08;;;12.80;99.90;;;;;;4069499;28;20033;-66
2022/09/17 03:51:06;;;;;;;6.75;1.58;;;12.80;99.90;;;;;;4072382;28;20042;-66
2022/09/17 03:53:07;;;;;;;7.50;1.70;;;12.80;99.90;;;;;;4067211;28;20115;-66
2022/09/17 03:55:07;;;;;;;8.60;2.13;;;12.80;99.90;;;;;;4069802;28;20153;-67
2022/09/17 03:57:08;;;;;;;9.18;2.00;;;12.80;99.90;;;;;;4072172;28;20082;-67
2022/09/17 03:59:09;;;;;;;6.80;2.00;;;12.70;99.90;;;;;;4068706;28;20040;-67
2022/09/17 04:01:09;;;;;;;12.50;2.17;;;12.70;99.90;;;;;;4063905;28;20372;-66
2022/09/17 04:03:10;;;;;;;13.23;2.70;;;12.70;99.90;;;;;;4072247;28;20119;-66
2022/09/17 04:05:10;;;;;;;10.40;2.13;;;12.70;99.90;;;;;;4067958;28;20051;-67
2022/09/17 04:07:11;;;;;;;5.90;1.65;;;12.80;99.90;;;;;;4061643;29;20084;-66
2022/09/17 04:09:12;;;;;;;7.20;1.70;;;12.70;99.90;;;;;;4062379;29;20450;-67
2022/09/17 04:11:12;;;;;;;4.95;1.95;;;12.70;99.90;;;;;;4067735;28;20087;-66
2022/09/17 04:13:15;;;;;;;8.10;2.22;;;12.70;99.90;;;;;;4061748;28;20032;-66
2022/09/17 04:15:16;;;;;;;6.88;1.90;;;12.70;99.90;;;;;;4060639;28;20064;-67
2022/09/17 04:17:17;;;;;;;7.47;1.65;;;12.70;99.90;;;;;;4067343;28;20056;-67
2022/09/17 04:19:17;;;;;;;6.78;1.58;;;12.70;99.90;;;;;;4062769;29;20391;-67
2022/09/17 04:21:18;;;;;;;4.90;1.45;;;12.70;99.90;;;;;;4071027;28;20364;-66
2022/09/17 04:23:19;;;;;;;8.73;1.92;;;12.70;99.90;;;;;;4068963;28;20040;-67
2022/09/17 04:25:19;;;;;;;9.00;1.92;;;12.70;99.90;;;;;;4069380;28;20058;-66
2022/09/17 04:27:20;;;;;;;8.07;2.00;;;12.70;99.90;;;;;;4071925;28;20032;-66
2022/09/17 04:29:21;;;;;;;6.10;1.70;;;12.70;99.90;;;;;;4064858;28;20035;-67
2022/09/17 04:31:23;;;;;;;5.90;1.50;;;12.70;99.90;;;;;;4066577;28;20120;-67
2022/09/17 04:33:24;;;;;;;7.57;2.20;;;12.70;99.90;;;;;;4064266;28;20119;-66
2022/09/17 04:35:25;;;;;;;8.10;2.20;;;12.70;99.90;;;;;;4065257;29;20070;-67
2022/09/17 04:37:25;;;;;;;7.00;1.60;;;12.70;99.90;;;;;;4067459;28;20129;-67
2022/09/17 04:39:26;;;;;;;6.68;1.98;;;12.70;99.90;;;;;;4070295;28;20036;-67
2022/09/17 04:41:26;;;;;;;11.38;2.22;;;12.70;99.90;;;;;;4065812;28;20813;-66
2022/09/17 04:43:27;;;;;;;4.25;1.77;;;12.70;99.90;;;;;;4060499;29;20444;-66
2022/09/17 04:45:29;;;;;;;5.72;1.88;;;12.60;99.90;;;;;;4070428;28;20040;-67
2022/09/17 04:47:30;;;;;;;6.63;1.70;;;12.70;99.90;;;;;;4064161;28;20052;-67
2022/09/17 04:49:31;;;;;;;2.92;1.17;;;12.60;99.90;;;;;;4067748;28;20136;-67
2022/09/17 04:51:32;;;;;;;6.00;1.67;;;12.70;99.90;;;;;;4062169;28;20492;-66
2022/09/17 04:53:32;;;;;;;8.57;2.15;;;12.60;99.90;;;;;;4072911;28;20032;-66
2022/09/17 04:55:33;;;;;;;7.88;2.08;;;12.70;99.90;;;;;;4068171;28;20094;-66
2022/09/17 04:57:34;;;;;;;8.70;2.22;;;12.70;99.90;;;;;;4067186;28;20040;-67
2022/09/17 04:59:34;;;;;;;5.32;1.63;;;12.60;99.90;;;;;;4072330;28;20027;-66
2022/09/17 05:01:35;;;;;;;7.63;1.70;;;12.60;99.90;;;;;;4061227;28;20032;-66
2022/09/17 05:03:35;;;;;;;5.57;1.70;;;12.70;99.90;;;;;;4056075;29;20056;-66
2022/09/17 05:05:36;;;;;;;4.45;1.50;;;12.70;99.90;;;;;;4063806;28;20040;-66
2022/09/17 05:07:40;;;;;;;5.88;1.30;;;12.60;99.90;;;;;;4072269;28;20028;-66
2022/09/17 05:09:41;;;;;;;6.65;1.90;;;12.70;99.90;;;;;;4067432;28;20115;-66
2022/09/17 05:11:42;;;;;;;3.42;1.35;;;12.60;99.90;;;;;;4065084;28;20040;-66
2022/09/17 05:13:42;;;;;;;5.28;1.38;;;12.60;99.90;;;;;;4075306;28;20035;-66
2022/09/17 05:15:43;;;;;;;7.47;1.85;;;12.70;99.90;;;;;;4070616;28;20502;-67
2022/09/17 05:17:45;;;;;;;8.43;2.22;;;12.60;99.90;;;;;;4072759;28;20483;-66
2022/09/17 05:19:45;;;;;;;5.97;1.83;;;12.60;99.90;;;;;;4070826;28;20036;-67
2022/09/17 05:21:46;;;;;;;6.03;1.60;;;12.60;99.90;;;;;;4070306;28;20062;-67
2022/09/17 05:23:47;;;;;;;7.15;2.05;;;12.60;99.90;;;;;;4063561;28;20051;-67
2022/09/17 05:25:47;;;;;;;2.75;1.30;;;12.60;99.90;;;;;;4065402;28;20044;-66
2022/09/17 05:27:48;;;;;;;14.38;1.90;;;12.60;99.90;;;;;;4061484;28;20040;-67
2022/09/17 05:29:48;;;;;;;11.95;2.13;;;12.60;99.90;;;;;;4064715;28;20040;-67
2022/09/17 05:31:49;;;;;;;7.00;1.83;;;12.60;99.90;;;;;;4068919;28;20035;-67
2022/09/17 05:33:50;;;;;;;9.68;2.50;;;12.70;99.90;;;;;;4070809;28;20032;-67
2022/09/17 05:35:50;;;;;;;8.43;1.80;;;12.70;99.90;;;;;;4067484;28;20079;-67
2022/09/17 05:37:56;;;;;;;7.90;2.30;;;12.70;99.90;;;;;;4068632;28;20028;-69
2022/09/17 05:39:57;;;;;;;7.22;1.77;;;12.70;99.90;;;;;;4061805;28;20033;-68
2022/09/17 05:41:58;;;;;;;3.35;1.27;;;12.70;99.90;;;;;;4073308;29;20051;-69
2022/09/17 05:43:58;;;;;;;4.63;1.13;;;12.70;99.90;;;;;;4064544;28;20073;-68
2022/09/17 05:46:04;;;;;;;5.47;1.88;;;12.70;99.90;;;;;;4071765;28;20494;-68
2022/09/17 05:48:06;;;;;;;3.95;1.38;;;12.70;99.90;;;;;;4065489;28;20059;-67
2022/09/17 05:50:07;;;;;;;4.72;1.35;;;12.80;99.90;;;;;;4071982;28;20062;-68
2022/09/17 05:52:08;;;;;;;3.67;1.42;;;12.80;99.90;;;;;;4060995;28;20119;-67
2022/09/17 05:54:09;;;;;;;8.63;1.80;;;12.80;99.90;;;;;;4072982;28;20042;-67
2022/09/17 05:56:09;;;;;;;4.63;1.45;;;12.80;99.90;;;;;;4069311;28;20123;-67
2022/09/17 05:58:12;;;;;;;5.75;1.30;;;12.80;99.90;;;;;;4062066;28;20487;-71
2022/09/17 06:00:13;;;;;;;;;;;12.90;99.90;;;;;;4070752;28;20054;-71
2022/09/17 06:02:13;;;;;;;5.43;1.80;;;12.90;99.90;;;;;;4066344;28;19911;-71
2022/09/17 06:04:14;;;;;;;6.05;1.67;;;12.80;99.90;;;;;;4064464;28;20447;-70
2022/09/17 06:06:15;;;;;;;5.80;1.55;;;12.80;99.90;;;;;;4063108;28;20036;-71
2022/09/17 06:08:16;;;;;;;10.00;1.75;;;12.80;99.90;;;;;;4066657;28;20091;-70
2022/09/17 06:10:16;;;;;;;7.78;1.73;;;12.80;99.90;;;;;;4074617;28;20087;-70
2022/09/17 06:12:17;;;;;;;10.30;2.55;;;12.80;99.90;;;;;;4077790;28;20114;-70
2022/09/17 06:14:17;;;;;;;4.38;1.45;;;12.70;99.90;;;;;;4064332;29;20032;-70
2022/09/17 06:16:20;;;;;;;4.60;1.60;;;12.70;99.90;;;;;;4068142;28;20024;-70
2022/09/17 06:18:21;;;;;;;7.55;1.88;;;12.70;99.90;;;;;;4074420;28;20402;-70
2022/09/17 06:20:21;;;;;;;4.63;1.05;;;12.70;99.90;;;;;;4070643;28;20063;-70
2022/09/17 06:22:22;;;;;;;5.60;1.60;;;12.70;99.90;;;;;;4074295;28;20405;-71
2022/09/17 06:24:23;;;;;;;6.65;1.42;;;12.70;99.90;;;;;;4065970;29;20044;-71
2022/09/17 06:26:23;;;;;;;5.38;1.80;;;12.70;99.90;;;;;;4064863;28;20389;-71
2022/09/17 06:28:25;;;;;;;6.40;1.40;;;12.80;99.90;;;;;;4065349;28;20040;-70
2022/09/17 06:30:25;;;;;;;6.30;1.48;;;12.70;99.90;;;;;;4061651;28;20123;-70
2022/09/17 06:32:27;;;;;;;7.07;1.70;;;12.80;99.90;;;;;;4070409;28;20388;-71
2022/09/17 06:34:28;;;;;;;5.32;1.63;;;12.80;99.90;;;;;;4068306;29;20048;-71
2022/09/17 06:36:28;;;;;;;5.30;1.70;;;12.80;99.90;;;;;;4070032;28;20048;-71
2022/09/17 06:38:31;;;;;;;9.70;1.83;;;12.70;99.90;;;;;;4070560;28;20047;-71
2022/09/17 06:40:32;;;;;;;;;;;12.80;99.90;;;;;;4070462;28;20039;-69
2022/09/17 06:42:32;;;;;;;5.88;1.60;;;12.80;99.90;;;;;;4069029;28;19915;-71
2022/09/17 06:44:33;;;;;;;8.75;1.80;;;13.00;99.90;;;;;;4067370;28;20064;-71
2022/09/17 06:46:33;;;;;;;6.28;1.40;;;13.10;99.90;;;;;;4061242;28;20055;-71
2022/09/17 06:48:36;;;;;;;7.57;1.80;;;13.30;99.90;;;;;;4059330;29;20391;-71
2022/09/17 06:50:36;;;;;;;4.55;1.60;;;13.50;99.90;;;;;;4057612;28;20028;-71
2022/09/17 06:52:37;;;;;;;9.98;1.83;;;13.70;99.90;;;;;;4060692;28;20519;-69
2022/09/17 06:54:38;;;;;;;9.73;2.17;;;13.80;99.90;;;;;;4059623;29;20055;-71
2022/09/17 06:56:38;;;;;;;7.88;1.63;;;14.00;99.90;;;;;;4059715;29;20515;-71
2022/09/17 06:58:40;;;;;;;8.10;2.05;;;14.10;99.90;;;;;;4062517;29;20039;-70
2022/09/17 07:00:41;;;;;;;9.25;2.17;;;14.30;99.90;;;;;;4059880;29;20119;-70
2022/09/17 07:02:42;;;;;;;7.40;2.25;;;14.30;99.90;;;;;;4060095;29;20064;-71
2022/09/17 07:04:42;;;;;;;7.40;2.15;;;14.40;99.90;;;;;;4066373;28;20098;-71
2022/09/17 07:06:44;;;;;;;7.55;1.52;;;14.50;99.90;;;;;;4078156;28;20028;-71
2022/09/17 07:08:45;;;;;;;13.13;2.28;;;14.70;99.90;;;;;;4068001;28;20055;-71
2022/09/17 07:10:46;;;;;;;7.70;2.00;;;14.80;99.90;;;;;;4071786;29;20036;-74
2022/09/17 07:12:46;;;;;;;8.82;1.85;;;15.00;99.90;;;;;;4068982;28;20543;-72
2022/09/17 07:14:47;;;;;;;4.50;1.65;;;15.10;99.90;;;;;;4072643;28;20063;-71
2022/09/17 07:16:48;;;;;;;5.82;1.75;;;15.20;99.90;;;;;;4062966;28;20083;-71
2022/09/17 07:18:48;;;;;;;5.80;1.60;;;15.40;99.90;;;;;;4072515;28;20024;-70
2022/09/17 07:20:54;;;;;;;6.65;1.80;;;15.40;99.90;;;;;;4073647;28;20091;-71
2022/09/17 07:22:56;;;;;;;8.00;2.22;;;15.40;99.90;;;;;;4066962;28;20164;-70
2022/09/17 07:24:56;;;;;;;7.40;1.98;;;15.50;99.90;;;;;;4065843;28;20032;-70
2022/09/17 07:26:57;;;;;;;6.13;1.80;;;15.50;99.90;;;;;;4076855;29;20491;-71
2022/09/17 07:28:58;;;;;;;4.93;1.50;;;15.60;99.90;;;;;;4072319;28;20040;-71
2022/09/17 07:31:03;;;;;;;10.75;1.67;;;15.80;99.90;;;;;;4063774;29;20032;-71
2022/09/17 07:33:03;;;;;;;9.27;2.08;;;15.90;99.90;;;;;;4069517;28;20039;-69
2022/09/17 07:35:04;;;;;;;5.85;1.70;;;16.00;99.90;;;;;;4066320;28;20516;-70
2022/09/17 07:37:06;;;;;;;9.02;1.98;;;16.10;99.90;;;;;;4061292;28;20052;-70
2022/09/17 07:39:06;;;;;;;9.20;1.73;;;16.40;99.90;;;;;;4067466;28;20063;-71
2022/09/17 07:41:14;;;;;;;9.07;2.25;;;16.50;99.90;;;;;;4071708;28;20837;-72
2022/09/17 07:43:14;;;;;;;4.88;1.48;;;16.60;99.90;;;;;;4069394;28;20392;-72
2022/09/17 07:45:15;;;;;;;6.40;1.70;;;16.70;99.90;;;;;;4064308;29;20119;-72
2022/09/17 07:47:16;;;;;;;12.02;2.22;;;16.70;99.90;;;;;;4069741;28;20044;-72
2022/09/17 07:49:16;;;;;;;4.57;1.60;;;16.70;99.90;;;;;;4063277;29;20522;-71
2022/09/17 07:51:22;;;;;;;6.05;1.30;;;16.90;99.90;;;;;;4062497;28;20545;-73
2022/09/17 07:53:22;;;;;;;7.93;2.10;;;16.90;99.90;;;;;;4070801;28;20032;-70
2022/09/17 07:55:23;;;;;;;7.82;1.42;;;17.00;99.90;;;;;;4071707;28;20035;-72
2022/09/17 07:57:23;;;;;;;6.50;1.45;;;17.00;99.90;;;;;;4072342;28;20032;-72
2022/09/17 07:59:24;;;;;;;6.25;1.73;;;17.00;99.90;;;;;;4071662;28;20039;-70
2022/09/17 08:01:26;;;;;;;7.53;1.60;;;17.10;99.90;;;;;;4067655;28;20035;-71
2022/09/17 08:03:26;;;;;;;6.70;1.50;;;17.10;99.90;;;;;;4065448;29;20039;-70
2022/09/17 08:05:27;;;;;;;4.20;1.50;;;17.20;99.90;;;;;;4070133;28;20036;-72
2022/09/17 08:07:27;;;;;;;8.27;1.75;;;17.30;99.90;;;;;;4068185;28;20123;-71
2022/09/17 08:09:28;;;;;;;5.55;1.67;;;17.20;99.90;;;;;;4066680;28;20056;-71
2022/09/17 08:11:29;;;;;;;7.00;1.73;;;17.30;99.90;;;;;;4069278;28;20036;-72
2022/09/17 08:13:30;;;;;;;3.15;1.42;;;17.30;99.90;;;;;;4072020;28;20047;-73
2022/09/17 08:15:31;;;;;;;6.20;1.58;;;17.30;99.90;;;;;;4066714;28;20090;-71
2022/09/17 08:17:31;;;;;;;4.07;1.23;;;17.30;99.90;;;;;;4076290;29;20083;-73
2022/09/17 08:19:32;;;;;;;8.45;1.92;;;17.40;99.90;;;;;;4067677;28;20460;-72
2022/09/17 08:21:33;;;;;;;7.22;1.85;;;17.50;99.90;;;;;;4067415;28;20108;-72
2022/09/17 08:23:35;;;;;;;7.50;1.92;;;17.60;99.90;;;;;;4065983;28;20039;-72
2022/09/17 08:25:35;;;;;;;4.65;1.52;;;17.70;99.90;;;;;;4071115;28;20043;-70
2022/09/17 08:27:39;;;;;;;3.65;1.60;;;17.80;99.90;;;;;;4068455;28;20032;-72
2022/09/17 08:29:40;;;;;;;5.05;1.25;;;17.90;99.90;;;;;;4062642;28;20045;-71
2022/09/17 08:31:40;;;;;;;5.43;1.33;;;18.00;99.90;;;;;;4061130;29;20036;-71
2022/09/17 08:33:42;;;;;;;6.28;1.30;;;18.10;99.90;;;;;;4069250;28;20047;-69
2022/09/17 08:35:50;;;;;;;8.25;1.80;;;18.10;99.90;;;;;;4063347;29;20039;-71
2022/09/17 08:37:53;;;;;;;5.20;1.35;;;18.10;99.90;;;;;;4067962;28;20036;-72
2022/09/17 08:39:54;;;;;;;4.43;1.40;;;18.20;99.90;;;;;;4068610;28;20476;-71
2022/09/17 08:42:11;;;;;;;8.63;1.85;;;18.20;99.90;;;;;;4069116;28;20032;-70
2022/09/17 08:44:37;;;;;;;7.20;1.60;;;18.30;99.90;;;;;;4067607;28;20064;-70
2022/09/17 08:46:37;;;;;;;3.97;1.33;;;18.20;99.90;;;;;;4064093;28;20626;-72
2022/09/17 08:48:57;;;;;;;3.55;1.20;;;18.40;99.90;;;;;;4068099;28;20039;-71
2022/09/17 08:50:58;;;;;;;5.45;1.30;;;18.40;99.90;;;;;;4062450;28;20047;-71
2022/09/17 08:53:24;;;;;;;8.35;1.65;;;18.50;99.90;;;;;;4062742;28;20099;-70
2022/09/17 08:55:33;;;;;;;5.57;1.73;;;18.60;99.90;;;;;;4064854;28;20337;-72
2022/09/17 08:57:40;;;;;;;4.45;1.30;;;18.60;99.90;;;;;;4064906;28;20036;-70
2022/09/17 09:00:04;;;;;;;5.63;1.67;;;18.60;99.90;;;;;;4066476;28;20739;-71
2022/09/17 09:02:23;;;;;;;4.38;1.35;;;18.60;99.90;;;;;;4066766;28;20336;-70
2022/09/17 09:04:54;;;;;;;7.63;1.63;;;18.60;99.90;;;;;;4072463;29;20413;-71
2022/09/17 09:07:04;;;;;;;6.38;1.45;;;18.50;99.90;;;;;;4246444;23;20056;-70
2022/09/17 09:09:20;;;;;;;7.10;1.27;;;18.30;99.90;;;;;;4060796;29;20039;-68
2022/09/17 09:11:25;;;;;;;5.00;1.20;;;18.20;99.90;;;;;;4066135;29;20039;-72
2022/09/17 09:13:39;;;;;;;7.15;1.50;;;18.10;99.90;;;;;;4064308;28;20047;-72
2022/09/17 09:15:50;;;;;;;5.82;1.50;;;18.10;99.90;;;;;;4063094;29;20028;-72
2022/09/17 09:17:52;;;;;;;3.85;1.27;;;18.00;99.90;;;;;;4066647;29;20119;-72
2022/09/17 09:19:53;;;;;;;4.70;1.40;;;18.00;99.90;;;;;;4063585;29;20034;-72
2022/09/17 09:22:28;;;;;;;8.93;1.55;;;17.90;99.90;;;;;;4065355;29;20039;-72
2022/09/17 09:24:40;;;;;;;6.10;1.45;;;17.60;99.90;;;;;;4062404;29;20138;-72
2022/09/17 09:26:44;;;;;;;7.72;1.63;;;17.50;99.90;;;;;;4065854;29;20033;-72
2022/09/17 09:29:04;;;;;;;8.05;1.60;;;17.50;99.90;;;;;;4064911;29;20044;-72
2022/09/17 09:31:23;;;;;;;4.95;1.23;;;17.40;99.90;;;;;;4065703;28;20127;-72
2022/09/17 09:33:37;;;;;;;4.50;1.40;;;17.20;99.90;;;;;;4064639;29;20506;-71
2022/09/17 09:35:43;;;;;;;6.70;1.33;;;17.10;99.90;;;;;;4062948;29;20032;-72
2022/09/17 09:37:53;;;;;;;4.88;1.55;;;17.00;99.90;;;;;;4064978;29;20382;-72
2022/09/17 09:40:00;;;;;;;6.82;1.45;;;16.80;99.90;;;;;;4063627;29;20079;-71
2022/09/17 09:42:22;;;;;;;3.22;1.30;;;16.80;99.90;;;;;;4065260;29;20119;-70
2022/09/17 09:44:24;;;;;;;9.63;1.50;;;16.70;99.90;;;;;;4059365;29;20049;-71
2022/09/17 09:46:34;;;;;;;3.53;1.40;;;16.60;99.90;;;;;;4065338;29;20040;-71
2022/09/17 09:48:53;;;;;;;7.25;1.98;;;16.50;99.90;;;;;;4059010;29;20400;-71
2022/09/17 09:51:17;;;;;;;2.72;1.08;;;16.40;99.90;;;;;;4063779;29;20079;-71
2022/09/17 09:53:36;;;;;;;4.03;1.20;;;16.60;99.90;;;;;;4058553;29;20033;-71
2022/09/17 09:56:03;;;;;;;7.25;1.77;;;16.70;99.90;;;;;;4062491;29;20048;-71
2022/09/17 09:58:29;;;;;;;4.30;1.13;;;16.70;99.90;;;;;;4062467;29;20036;-70
2022/09/17 10:00:37;;;;;;;4.00;1.20;;;16.70;99.90;;;;;;4061207;29;20072;-71
2022/09/17 10:02:38;;;;;;;6.20;1.52;;;16.60;99.90;;;;;;4066841;28;20392;-71
2022/09/17 10:04:38;;;;;;;9.77;1.33;;;16.60;99.90;;;;;;4065175;29;20039;-71
2022/09/17 10:06:39;;;;;;;4.72;1.33;;;16.60;99.90;;;;;;4063128;29;20374;-71
2022/09/17 10:09:00;;;;;;;6.47;1.50;;;16.60;99.90;;;;;;4060959;29;20096;-71
2022/09/17 10:11:03;;;;;;;4.65;1.25;;;16.70;99.90;;;;;;4054540;29;20784;-70
2022/09/17 10:13:06;;;;;;;3.88;0.93;;;16.60;99.90;;;;;;4063043;29;20044;-70
2022/09/17 10:15:27;;;;;;;3.47;1.15;;;16.70;99.90;;;;;;4062487;29;20036;-70
2022/09/17 10:17:28;;;;;;;5.78;1.52;;;16.80;99.90;;;;;;4061934;29;20143;-71
2022/09/17 10:19:29;;;;;;;3.38;1.10;;;16.90;99.90;;;;;;4062471;29;20092;-71
2022/09/17 10:21:32;;;;;;;6.65;1.25;;;17.10;99.90;;;;;;4061386;29;20115;-70
2022/09/17 10:23:37;;;;;;;3.90;1.23;;;17.30;99.90;;;;;;4062349;29;20128;-71
2022/09/17 10:25:42;;;;;;;2.72;0.80;;;17.30;99.90;;;;;;4057568;29;20056;-70
2022/09/17 10:27:44;;;;;;;2.85;1.25;;;17.30;99.90;;;;;;4059796;29;20032;-68
2022/09/17 10:29:48;;;;;;;4.67;1.50;;;17.30;99.90;;;;;;4056086;29;20147;-71
2022/09/17 10:31:54;;;;;;;2.90;1.02;;;17.10;99.90;;;;;;4059446;29;20036;-71
2022/09/17 10:34:01;;;;;;;5.18;1.20;;;16.90;99.90;;;;;;4061042;29;20048;-70
2022/09/17 10:36:12;;;;;;;4.93;1.30;;;16.80;99.90;;;;;;4059143;29;20049;-70
2022/09/17 10:38:34;;;;;;;3.60;1.00;;;16.70;99.90;;;;;;4060662;29;20036;-68
2022/09/17 10:40:34;;;;;;;4.90;1.00;;;16.80;99.90;;;;;;4060624;29;20043;-70
2022/09/17 10:42:35;;;;;;;3.80;1.30;;;16.90;99.90;;;;;;4062215;29;20044;-71
2022/09/17 10:44:36;;;;;;;4.75;1.30;;;17.00;99.90;;;;;;4059248;29;20056;-71
2022/09/17 10:46:37;;;;;;;4.50;1.35;;;17.00;99.90;;;;;;4055928;29;20056;-70
2022/09/17 10:48:42;;;;;;;5.07;1.10;;;17.00;99.90;;;;;;4061380;29;20047;-70
2022/09/17 10:50:55;;;;;;;6.40;1.23;;;17.00;99.90;;;;;;4061423;29;20433;-70